Time,TemperatureF,DewpointF,PressureIn,WindDirection,WindDirectionDegrees,WindSpeedMPH,WindSpeedGustMPH,Humidity,HourlyPrecipIn,Conditions,Clouds,dailyrainin,SoftwareType,DateUTC
2013-06-17 00:00:00,60.1,56.8,29.83,SW,227,3.0,3.0,89,0.00,,,0.00,Wunderground v.1.15,2013-06-17 04:00:00,
2013-06-17 00:05:00,60.2,56.9,29.83,West,275,3.0,3.0,89,0.00,,,0.00,Wunderground v.1.15,2013-06-17 04:05:00,
2013-06-17 00:10:00,60.2,56.9,29.84,SSW,203,3.0,6.0,89,0.00,,,0.00,Wunderground v.1.15,2013-06-17 04:10:00,
2013-06-17 00:20:00,60.1,56.8,29.84,SW,223,2.0,2.0,89,0.00,,,0.00,Wunderground v.1.15,2013-06-17 04:20:00,
2013-06-17 00:25:00,60.0,56.7,29.84,SW,234,2.0,2.0,89,0.00,,,0.00,Wunderground v.1.15,2013-06-17 04:25:00,
2013-06-17 00:30:00,60.0,56.7,29.84,SSW,209,2.0,3.0,89,0.00,,,0.00,Wunderground v.1.15,2013-06-17 04:30:00,
2013-06-17 00:35:00,59.9,56.6,29.84,WSW,242,2.0,3.0,89,0.00,,,0.00,Wunderground v.1.15,2013-06-17 04:35:00,
2013-06-17 00:45:00,59.8,56.6,29.84,SSW,205,1.0,1.0,89,0.00,,,0.00,Wunderground v.1.15,2013-06-17 04:45:00,
2013-06-17 00:50:00,59.7,56.5,29.84,SW,222,1.0,1.0,89,0.00,,,0.00,Wunderground v.1.15,2013-06-17 04:50:00,
2013-06-17 00:55:00,59.6,56.4,29.84,SSW,200,1.0,1.0,89,0.00,,,0.00,Wunderground v.1.15,2013-06-17 04:55:00,
2013-06-17 01:00:00,59.7,56.1,29.85,SSW,206,1.0,1.0,88,0.00,,,0.00,Wunderground v.1.15,2013-06-17 05:00:00,
2013-06-17 01:10:00,59.7,56.1,29.85,SW,229,1.0,2.0,88,0.00,,,0.00,Wunderground v.1.15,2013-06-17 05:10:00,
2013-06-17 01:15:00,59.7,56.1,29.85,WSW,238,1.0,2.0,88,0.00,,,0.00,Wunderground v.1.15,2013-06-17 05:15:00,
2013-06-17 01:20:00,59.8,55.9,29.85,SSW,201,1.0,2.0,87,0.00,,,0.00,Wunderground v.1.15,2013-06-17 05:20:00,
2013-06-17 01:25:00,59.9,56.0,29.86,SSW,202,2.0,2.0,87,0.00,,,0.00,Wunderground v.1.15,2013-06-17 05:25:00,
2013-06-17 01:30:00,60.0,55.8,29.85,WSW,248,1.0,1.0,86,0.00,,,0.00,Wunderground v.1.15,2013-06-17 05:30:00,
2013-06-17 01:40:00,60.2,56.0,29.85,SW,234,2.0,2.0,86,0.00,,,0.00,Wunderground v.1.15,2013-06-17 05:40:00,
2013-06-17 01:45:00,60.2,55.7,29.85,SSW,197,2.0,3.0,85,0.00,,,0.00,Wunderground v.1.15,2013-06-17 05:45:00,
2013-06-17 01:50:00,60.4,55.9,29.85,SW,218,2.0,2.0,85,0.00,,,0.00,Wunderground v.1.15,2013-06-17 05:50:00,
2013-06-17 01:55:00,60.4,55.5,29.85,South,176,2.0,2.0,84,0.00,,,0.00,Wunderground v.1.15,2013-06-17 05:55:00,
2013-06-17 02:00:00,60.4,55.5,29.85,SW,225,1.0,1.0,84,0.00,,,0.00,Wunderground v.1.15,2013-06-17 06:00:00,
2013-06-17 02:10:00,60.3,55.1,29.85,South,190,1.0,1.0,83,0.00,,,0.00,Wunderground v.1.15,2013-06-17 06:10:00,
2013-06-17 02:15:00,60.2,55.0,29.85,SW,230,1.0,1.0,83,0.00,,,0.00,Wunderground v.1.15,2013-06-17 06:15:00,
2013-06-17 02:25:00,60.0,54.8,29.85,WSW,243,1.0,4.0,83,0.00,,,0.00,Wunderground v.1.15,2013-06-17 06:25:00,
2013-06-17 02:30:00,60.0,55.2,29.86,SSW,206,1.0,3.0,84,0.00,,,0.00,Wunderground v.1.15,2013-06-17 06:30:00,
2013-06-17 02:35:00,59.9,55.1,29.86,SSW,213,1.0,3.0,84,0.00,,,0.00,Wunderground v.1.15,2013-06-17 06:35:00,
2013-06-17 02:40:00,59.7,54.9,29.86,SSW,213,1.0,1.0,84,0.00,,,0.00,Wunderground v.1.15,2013-06-17 06:40:00,
2013-06-17 02:45:00,59.4,54.9,29.86,South,186,0.0,1.0,85,0.00,,,0.00,Wunderground v.1.15,2013-06-17 06:45:00,
2013-06-17 02:50:00,59.1,54.6,29.85,South,185,0.0,0.0,85,0.00,,,0.00,Wunderground v.1.15,2013-06-17 06:50:00,
2013-06-17 03:00:00,58.7,54.5,29.85,SSE,163,1.0,3.0,86,0.00,,,0.00,Wunderground v.1.15,2013-06-17 07:00:00,
2013-06-17 03:05:00,58.6,54.4,29.85,SSE,163,1.0,3.0,86,0.00,,,0.00,Wunderground v.1.15,2013-06-17 07:05:00,
2013-06-17 03:10:00,58.5,54.3,29.85,SSE,163,1.0,1.0,86,0.00,,,0.00,Wunderground v.1.15,2013-06-17 07:10:00,
2013-06-17 03:15:00,58.3,54.1,29.85,SE,145,0.0,1.0,86,0.00,,,0.00,Wunderground v.1.15,2013-06-17 07:15:00,
2013-06-17 03:20:00,58.1,53.9,29.85,South,174,0.0,0.0,86,0.00,,,0.00,Wunderground v.1.15,2013-06-17 07:20:00,
2013-06-17 03:25:00,57.9,53.7,29.86,SSW,194,0.0,0.0,86,0.00,,,0.00,Wunderground v.1.15,2013-06-17 07:25:00,
2013-06-17 03:35:00,58.0,53.8,29.85,SW,216,1.0,1.0,86,0.00,,,0.00,Wunderground v.1.15,2013-06-17 07:35:00,
2013-06-17 03:40:00,57.9,53.4,29.85,SW,217,1.0,1.0,85,0.00,,,0.00,Wunderground v.1.15,2013-06-17 07:40:00,
2013-06-17 03:45:00,57.8,53.3,29.85,SSW,211,0.0,1.0,85,0.00,,,0.00,Wunderground v.1.15,2013-06-17 07:45:00,
2013-06-17 03:50:00,57.8,53.3,29.85,SSW,200,0.0,0.0,85,0.00,,,0.00,Wunderground v.1.15,2013-06-17 07:50:00,
2013-06-17 03:55:00,57.7,53.2,29.86,West,275,0.0,0.0,85,0.00,,,0.00,Wunderground v.1.15,2013-06-17 07:55:00,
2013-06-17 04:00:00,57.7,53.2,29.86,WSW,250,1.0,3.0,85,0.00,,,0.00,Wunderground v.1.15,2013-06-17 08:00:00,
2013-06-17 04:05:00,57.8,53.3,29.86,WSW,238,2.0,3.0,85,0.00,,,0.00,Wunderground v.1.15,2013-06-17 08:05:00,
2013-06-17 04:10:00,57.9,53.1,29.86,NW,308,1.0,5.0,84,0.00,,,0.00,Wunderground v.1.15,2013-06-17 08:10:00,
2013-06-17 04:15:00,58.0,53.2,29.87,SW,236,1.0,5.0,84,0.00,,,0.00,Wunderground v.1.15,2013-06-17 08:15:00,
2013-06-17 04:20:00,58.1,53.3,29.87,West,281,2.0,2.0,84,0.00,,,0.00,Wunderground v.1.15,2013-06-17 08:20:00,
2013-06-17 04:25:00,58.3,53.5,29.87,SW,232,2.0,2.0,84,0.00,,,0.00,Wunderground v.1.15,2013-06-17 08:25:00,
2013-06-17 04:30:00,58.6,53.5,29.87,SW,229,3.0,4.0,83,0.00,,,0.00,Wunderground v.1.15,2013-06-17 08:30:00,
2013-06-17 04:35:00,58.9,53.7,29.87,SW,236,4.0,4.0,83,0.00,,,0.00,Wunderground v.1.15,2013-06-17 08:35:00,
2013-06-17 04:40:00,59.0,53.8,29.87,SSW,200,3.0,5.0,83,0.00,,,0.00,Wunderground v.1.15,2013-06-17 08:40:00,
2013-06-17 04:45:00,59.1,53.6,29.87,WSW,246,3.0,5.0,82,0.00,,,0.00,Wunderground v.1.15,2013-06-17 08:45:00,
2013-06-17 04:55:00,59.6,53.8,29.87,SW,217,4.0,11.0,81,0.00,,,0.00,Wunderground v.1.15,2013-06-17 08:55:00,
2013-06-17 05:00:00,59.7,53.9,29.87,WNW,301,4.0,4.0,81,0.00,,,0.00,Wunderground v.1.15,2013-06-17 09:00:00,
2013-06-17 05:05:00,59.6,54.1,29.87,West,272,4.0,4.0,82,0.00,,,0.00,Wunderground v.1.15,2013-06-17 09:05:00,
2013-06-17 05:10:00,59.4,53.9,29.87,SW,229,2.0,2.0,82,0.00,,,0.00,Wunderground v.1.15,2013-06-17 09:10:00,
2013-06-17 05:15:00,59.2,54.0,29.88,WNW,297,2.0,4.0,83,0.00,,,0.00,Wunderground v.1.15,2013-06-17 09:15:00,
2013-06-17 05:20:00,59.0,53.8,29.88,WSW,250,2.0,2.0,83,0.00,,,0.00,Wunderground v.1.15,2013-06-17 09:20:00,
2013-06-17 05:25:00,58.9,54.1,29.88,SW,225,3.0,4.0,84,0.00,,,0.00,Wunderground v.1.15,2013-06-17 09:25:00,
2013-06-17 05:30:00,59.1,54.3,29.88,South,186,4.0,4.0,84,0.00,,,0.00,Wunderground v.1.15,2013-06-17 09:30:00,
2013-06-17 05:35:00,59.1,54.3,29.89,WSW,238,4.0,4.0,84,0.00,,,0.00,Wunderground v.1.15,2013-06-17 09:35:00,
2013-06-17 05:40:00,59.2,54.4,29.89,WSW,249,3.0,3.0,84,0.00,,,0.00,Wunderground v.1.15,2013-06-17 09:40:00,
2013-06-17 05:45:00,59.3,54.8,29.89,SW,236,2.0,3.0,85,0.00,,,0.00,Wunderground v.1.15,2013-06-17 09:45:00,
2013-06-17 05:55:00,59.2,55.0,29.89,SW,235,3.0,3.0,86,0.00,,,0.00,Wunderground v.1.15,2013-06-17 09:55:00,
2013-06-17 06:00:00,59.3,55.1,29.89,South,189,3.0,3.0,86,0.00,,,0.00,Wunderground v.1.15,2013-06-17 10:00:00,
2013-06-17 06:05:00,59.4,55.2,29.89,WSW,244,3.0,3.0,86,0.00,,,0.00,Wunderground v.1.15,2013-06-17 10:05:00,
2013-06-17 06:10:00,59.4,55.2,29.90,West,279,2.0,4.0,86,0.00,,,0.00,Wunderground v.1.15,2013-06-17 10:10:00,
2013-06-17 06:15:00,59.6,55.4,29.90,WNW,290,2.0,5.0,86,0.00,,,0.00,Wunderground v.1.15,2013-06-17 10:15:00,
2013-06-17 06:20:00,59.8,55.6,29.89,SW,227,3.0,3.0,86,0.00,,,0.00,Wunderground v.1.15,2013-06-17 10:20:00,
2013-06-17 06:25:00,60.2,56.0,29.90,SW,233,2.0,3.0,86,0.00,,,0.00,Wunderground v.1.15,2013-06-17 10:25:00,
2013-06-17 06:30:00,60.4,55.9,29.89,West,261,2.0,2.0,85,0.00,,,0.00,Wunderground v.1.15,2013-06-17 10:30:00,
2013-06-17 06:35:00,60.6,56.1,29.90,WSW,251,3.0,3.0,85,0.00,,,0.00,Wunderground v.1.15,2013-06-17 10:35:00,
2013-06-17 06:40:00,60.7,56.2,29.90,SSE,163,4.0,4.0,85,0.00,,,0.00,Wunderground v.1.15,2013-06-17 10:40:00,
2013-06-17 06:45:00,61.0,56.1,29.90,WSW,257,3.0,4.0,84,0.00,,,0.00,Wunderground v.1.15,2013-06-17 10:45:00,
2013-06-17 06:50:00,61.1,56.2,29.90,West,259,4.0,6.0,84,0.00,,,0.00,Wunderground v.1.15,2013-06-17 10:50:00,
2013-06-17 06:55:00,61.2,56.3,29.90,West,272,4.0,6.0,84,0.00,,,0.00,Wunderground v.1.15,2013-06-17 10:55:00,
2013-06-17 07:00:00,61.4,56.5,29.90,WNW,295,4.0,4.0,84,0.00,,,0.00,Wunderground v.1.15,2013-06-17 11:00:00,
2013-06-17 07:05:00,61.6,56.4,29.90,SW,216,3.0,5.0,83,0.00,,,0.00,Wunderground v.1.15,2013-06-17 11:05:00,
2013-06-17 07:10:00,61.8,56.6,29.90,WSW,244,3.0,3.0,83,0.00,,,0.00,Wunderground v.1.15,2013-06-17 11:10:00,
2013-06-17 07:15:00,62.1,57.2,29.90,WNW,302,3.0,3.0,84,0.00,,,0.00,Wunderground v.1.15,2013-06-17 11:15:00,
2013-06-17 07:20:00,62.3,57.1,29.90,SSW,197,2.0,3.0,83,0.00,,,0.00,Wunderground v.1.15,2013-06-17 11:20:00,
2013-06-17 07:25:00,62.6,57.4,29.91,WNW,297,2.0,3.0,83,0.00,,,0.00,Wunderground v.1.15,2013-06-17 11:25:00,
2013-06-17 07:30:00,62.7,57.1,29.91,WSW,252,3.0,3.0,82,0.00,,,0.00,Wunderground v.1.15,2013-06-17 11:30:00,
2013-06-17 07:35:00,63.1,57.9,29.91,WSW,240,2.0,5.0,83,0.00,,,0.00,Wunderground v.1.15,2013-06-17 11:35:00,
2013-06-17 07:40:00,63.2,57.6,29.91,SSW,209,3.0,3.0,82,0.00,,,0.00,Wunderground v.1.15,2013-06-17 11:40:00,
2013-06-17 07:45:00,63.4,57.5,29.91,WNW,293,3.0,3.0,81,0.00,,,0.00,Wunderground v.1.15,2013-06-17 11:45:00,
2013-06-17 07:50:00,63.6,58.0,29.92,West,276,3.0,3.0,82,0.00,,,0.00,Wunderground v.1.15,2013-06-17 11:50:00,
2013-06-17 07:55:00,63.8,58.2,29.91,South,179,3.0,5.0,82,0.00,,,0.00,Wunderground v.1.15,2013-06-17 11:55:00,
2013-06-17 08:00:00,64.0,58.7,29.91,WSW,258,4.0,5.0,83,0.00,,,0.00,Wunderground v.1.15,2013-06-17 12:00:00,
2013-06-17 08:05:00,64.4,58.4,29.92,SW,215,3.0,5.0,81,0.00,,,0.00,Wunderground v.1.15,2013-06-17 12:05:00,
2013-06-17 08:10:00,64.8,58.5,29.92,West,261,2.0,2.0,80,0.00,,,0.00,Wunderground v.1.15,2013-06-17 12:10:00,
2013-06-17 08:15:00,65.1,58.8,29.92,WSW,240,2.0,2.0,80,0.00,,,0.00,Wunderground v.1.15,2013-06-17 12:15:00,
2013-06-17 08:20:00,65.3,58.6,29.92,SW,219,4.0,11.0,79,0.00,,,0.00,Wunderground v.1.15,2013-06-17 12:20:00,
2013-06-17 08:25:00,65.4,58.4,29.92,West,269,4.0,11.0,78,0.00,,,0.00,Wunderground v.1.15,2013-06-17 12:25:00,
2013-06-17 08:30:00,65.5,59.2,29.92,SSW,211,5.0,8.0,80,0.00,,,0.00,Wunderground v.1.15,2013-06-17 12:30:00,
2013-06-17 08:35:00,65.9,58.8,29.92,West,271,4.0,14.0,78,0.00,,,0.00,Wunderground v.1.15,2013-06-17 12:35:00,
2013-06-17 08:40:00,66.0,58.6,29.92,WSW,250,5.0,5.0,77,0.00,,,0.00,Wunderground v.1.15,2013-06-17 12:40:00,
2013-06-17 08:45:00,66.3,59.2,29.92,WSW,246,4.0,5.0,78,0.00,,,0.00,Wunderground v.1.15,2013-06-17 12:45:00,
2013-06-17 08:50:00,66.8,59.4,29.91,West,269,2.0,3.0,77,0.00,,,0.00,Wunderground v.1.15,2013-06-17 12:50:00,
2013-06-17 08:55:00,67.3,59.5,29.91,NW,310,2.0,3.0,76,0.00,,,0.00,Wunderground v.1.15,2013-06-17 12:55:00,
2013-06-17 09:00:00,67.6,59.0,29.92,SW,229,2.0,2.0,74,0.00,,,0.00,Wunderground v.1.15,2013-06-17 13:00:00,
2013-06-17 09:05:00,67.7,58.7,29.92,WNW,302,3.0,3.0,73,0.00,,,0.00,Wunderground v.1.15,2013-06-17 13:05:00,
2013-06-17 09:15:00,67.8,60.0,29.91,WSW,239,3.0,4.0,76,0.00,,,0.00,Wunderground v.1.15,2013-06-17 13:15:00,
2013-06-17 09:20:00,67.9,60.1,29.91,West,260,4.0,4.0,76,0.00,,,0.00,Wunderground v.1.15,2013-06-17 13:20:00,
2013-06-17 09:25:00,68.3,60.8,29.92,SSW,207,3.0,4.0,77,0.00,,,0.00,Wunderground v.1.15,2013-06-17 13:25:00,
2013-06-17 09:30:00,68.6,60.4,29.91,West,261,3.0,4.0,75,0.00,,,0.00,Wunderground v.1.15,2013-06-17 13:30:00,
2013-06-17 09:35:00,68.9,59.9,29.91,WSW,253,3.0,5.0,73,0.00,,,0.00,Wunderground v.1.15,2013-06-17 13:35:00,
2013-06-17 09:40:00,69.2,60.2,29.91,SW,215,3.0,3.0,73,0.00,,,0.00,Wunderground v.1.15,2013-06-17 13:40:00,
2013-06-17 09:50:00,69.3,60.7,29.91,SSE,157,5.0,5.0,74,0.00,,,0.00,Wunderground v.1.15,2013-06-17 13:50:00,
2013-06-17 09:55:00,69.5,60.1,29.91,SW,225,4.0,5.0,72,0.00,,,0.00,Wunderground v.1.15,2013-06-17 13:55:00,
2013-06-17 10:00:00,69.8,60.0,29.91,WSW,249,4.0,4.0,71,0.00,,,0.00,Wunderground v.1.15,2013-06-17 14:00:00,
2013-06-17 10:05:00,69.8,60.0,29.91,West,267,4.0,5.0,71,0.00,,,0.00,Wunderground v.1.15,2013-06-17 14:05:00,
2013-06-17 10:10:00,69.9,59.7,29.91,SW,219,4.0,4.0,70,0.00,,,0.00,Wunderground v.1.15,2013-06-17 14:10:00,
2013-06-17 10:15:00,70.0,60.2,29.91,SW,224,4.0,4.0,71,0.00,,,0.00,Wunderground v.1.15,2013-06-17 14:15:00,
2013-06-17 10:20:00,70.3,60.4,29.91,SW,217,4.0,4.0,71,0.00,,,0.00,Wunderground v.1.15,2013-06-17 14:20:00,
2013-06-17 10:25:00,70.6,59.5,29.90,WNW,297,5.0,5.0,68,0.00,,,0.00,Wunderground v.1.15,2013-06-17 14:25:00,
2013-06-17 10:30:00,70.8,60.5,29.91,WNW,286,4.0,4.0,70,0.00,,,0.00,Wunderground v.1.15,2013-06-17 14:30:00,
2013-06-17 10:35:00,71.1,60.0,29.91,South,187,4.0,4.0,68,0.00,,,0.00,Wunderground v.1.15,2013-06-17 14:35:00,
2013-06-17 10:40:00,71.3,61.0,29.91,WSW,257,4.0,4.0,70,0.00,,,0.00,Wunderground v.1.15,2013-06-17 14:40:00,
2013-06-17 10:45:00,71.4,59.9,29.92,West,273,4.0,5.0,67,0.00,,,0.00,Wunderground v.1.15,2013-06-17 14:45:00,
2013-06-17 10:50:00,71.8,61.5,29.91,WSW,250,4.0,10.0,70,0.00,,,0.00,Wunderground v.1.15,2013-06-17 14:50:00,
2013-06-17 10:55:00,72.0,60.4,29.91,SSW,212,3.0,10.0,67,0.00,,,0.00,Wunderground v.1.15,2013-06-17 14:55:00,
2013-06-17 11:00:00,72.1,60.1,29.91,WNW,288,4.0,4.0,66,0.00,,,0.00,Wunderground v.1.15,2013-06-17 15:00:00,
2013-06-17 11:05:00,72.2,61.0,29.91,SW,223,4.0,4.0,68,0.00,,,0.00,Wunderground v.1.15,2013-06-17 15:05:00,
2013-06-17 11:10:00,72.4,60.0,29.91,SW,234,4.0,4.0,65,0.00,,,0.00,Wunderground v.1.15,2013-06-17 15:10:00,
2013-06-17 11:15:00,72.6,60.2,29.91,West,267,3.0,6.0,65,0.00,,,0.00,Wunderground v.1.15,2013-06-17 15:15:00,
2013-06-17 11:20:00,72.7,58.9,29.91,West,260,4.0,4.0,62,0.00,,,0.00,Wunderground v.1.15,2013-06-17 15:20:00,
2013-06-17 11:25:00,72.8,60.3,29.90,SW,225,4.0,4.0,65,0.00,,,0.00,Wunderground v.1.15,2013-06-17 15:25:00,
2013-06-17 11:30:00,72.8,59.9,29.91,South,177,5.0,5.0,64,0.00,,,0.00,Wunderground v.1.15,2013-06-17 15:30:00,
2013-06-17 11:35:00,72.9,59.6,29.91,WSW,245,5.0,6.0,63,0.00,,,0.00,Wunderground v.1.15,2013-06-17 15:35:00,
2013-06-17 11:40:00,73.0,60.1,29.90,SSW,209,4.0,4.0,64,0.00,,,0.00,Wunderground v.1.15,2013-06-17 15:40:00,
2013-06-17 11:45:00,73.4,58.7,29.90,WNW,302,3.0,4.0,60,0.00,,,0.00,Wunderground v.1.15,2013-06-17 15:45:00,
2013-06-17 11:50:00,73.5,59.7,29.90,WNW,290,4.0,4.0,62,0.00,,,0.00,Wunderground v.1.15,2013-06-17 15:50:00,
2013-06-17 12:00:00,74.2,61.2,29.90,WSW,254,3.0,3.0,64,0.00,,,0.00,Wunderground v.1.15,2013-06-17 16:00:00,
2013-06-17 12:10:00,74.4,59.6,29.89,West,280,3.0,3.0,60,0.00,,,0.00,Wunderground v.1.15,2013-06-17 16:10:00,
2013-06-17 12:15:00,74.9,60.5,29.89,SW,227,3.0,13.0,61,0.00,,,0.00,Wunderground v.1.15,2013-06-17 16:15:00,
2013-06-17 12:20:00,74.8,60.4,29.89,WSW,252,2.0,2.0,61,0.00,,,0.00,Wunderground v.1.15,2013-06-17 16:20:00,
2013-06-17 12:25:00,74.7,58.5,29.89,SW,227,3.0,3.0,57,0.00,,,0.00,Wunderground v.1.15,2013-06-17 16:25:00,
2013-06-17 12:30:00,74.8,59.0,29.89,SSW,203,4.0,4.0,58,0.00,,,0.00,Wunderground v.1.15,2013-06-17 16:30:00,
2013-06-17 12:35:00,74.9,60.5,29.88,WSW,238,3.0,4.0,61,0.00,,,0.00,Wunderground v.1.15,2013-06-17 16:35:00,
2013-06-17 12:45:00,75.5,58.7,29.88,WSW,242,3.0,4.0,56,0.00,,,0.00,Wunderground v.1.15,2013-06-17 16:45:00,
2013-06-17 12:50:00,75.7,58.9,29.88,WNW,296,4.0,4.0,56,0.00,,,0.00,Wunderground v.1.15,2013-06-17 16:50:00,
2013-06-17 12:55:00,75.8,59.0,29.88,WSW,241,5.0,5.0,56,0.00,,,0.00,Wunderground v.1.15,2013-06-17 16:55:00,
2013-06-17 13:00:00,76.3,59.9,29.88,WSW,247,4.0,10.0,57,0.00,,,0.00,Wunderground v.1.15,2013-06-17 17:00:00,
2013-06-17 13:05:00,76.4,59.0,29.88,WNW,294,4.0,10.0,55,0.00,,,0.00,Wunderground v.1.15,2013-06-17 17:05:00,
2013-06-17 13:10:00,76.7,60.3,29.88,WSW,256,4.0,4.0,57,0.00,,,0.00,Wunderground v.1.15,2013-06-17 17:10:00,
2013-06-17 13:15:00,77.3,59.9,29.88,WSW,250,3.0,4.0,55,0.00,,,0.00,Wunderground v.1.15,2013-06-17 17:15:00,
2013-06-17 13:25:00,77.3,59.9,29.88,SSW,207,3.0,4.0,55,0.00,,,0.00,Wunderground v.1.15,2013-06-17 17:25:00,
2013-06-17 13:30:00,77.4,58.4,29.88,West,275,3.0,3.0,52,0.00,,,0.00,Wunderground v.1.15,2013-06-17 17:30:00,
2013-06-17 13:35:00,77.5,60.1,29.87,West,265,4.0,5.0,55,0.00,,,0.00,Wunderground v.1.15,2013-06-17 17:35:00,
2013-06-17 13:40:00,76.9,57.9,29.87,WSW,238,4.0,4.0,52,0.00,,,0.00,Wunderground v.1.15,2013-06-17 17:40:00,
2013-06-17 13:45:00,76.7,58.3,29.87,WSW,253,3.0,4.0,53,0.00,,,0.00,Wunderground v.1.15,2013-06-17 17:45:00,
2013-06-17 13:50:00,76.6,58.2,29.87,WSW,245,3.0,4.0,53,0.00,,,0.00,Wunderground v.1.15,2013-06-17 17:50:00,
2013-06-17 14:00:00,77.3,59.4,29.86,West,269,4.0,4.0,54,0.00,,,0.00,Wunderground v.1.15,2013-06-17 18:00:00,
2013-06-17 14:05:00,77.5,57.4,29.87,SW,236,3.0,4.0,50,0.00,,,0.00,Wunderground v.1.15,2013-06-17 18:05:00,
2013-06-17 14:10:00,77.6,58.0,29.87,SSW,200,3.0,10.0,51,0.00,,,0.00,Wunderground v.1.15,2013-06-17 18:10:00,
2013-06-17 14:15:00,77.3,55.5,29.87,SW,229,5.0,10.0,47,0.00,,,0.00,Wunderground v.1.15,2013-06-17 18:15:00,
2013-06-17 14:20:00,76.5,56.5,29.88,South,189,4.0,4.0,50,0.00,,,0.00,Wunderground v.1.15,2013-06-17 18:20:00,
2013-06-17 14:25:00,76.0,55.5,29.88,WSW,240,4.0,4.0,49,0.00,,,0.00,Wunderground v.1.15,2013-06-17 18:25:00,
2013-06-17 14:30:00,75.8,56.4,29.88,West,279,4.0,4.0,51,0.00,,,0.00,Wunderground v.1.15,2013-06-17 18:30:00,
2013-06-17 14:35:00,75.5,55.0,29.89,WNW,293,3.0,4.0,49,0.00,,,0.00,Wunderground v.1.15,2013-06-17 18:35:00,
2013-06-17 14:40:00,74.0,56.8,29.90,West,271,4.0,4.0,55,0.00,,,0.00,Wunderground v.1.15,2013-06-17 18:40:00,
2013-06-17 14:45:00,71.4,55.9,29.90,NW,311,6.0,6.0,58,0.00,,,0.00,Wunderground v.1.15,2013-06-17 18:45:00,
2013-06-17 14:55:00,70.0,56.4,29.90,NE,56,1.0,4.0,62,0.00,,,0.00,Wunderground v.1.15,2013-06-17 18:55:00,
2013-06-17 15:00:00,69.6,57.3,29.90,North,9,1.0,3.0,65,0.00,,,0.00,Wunderground v.1.15,2013-06-17 19:00:00,
2013-06-17 15:05:00,69.1,56.8,29.90,NNW,337,2.0,3.0,65,0.00,,,0.00,Wunderground v.1.15,2013-06-17 19:05:00,
2013-06-17 15:10:00,68.5,56.7,29.90,NNW,328,2.0,2.0,66,0.00,,,0.00,Wunderground v.1.15,2013-06-17 19:10:00,
2013-06-17 15:15:00,68.1,57.9,29.90,NNW,340,1.0,2.0,70,0.00,,,0.00,Wunderground v.1.15,2013-06-17 19:15:00,
2013-06-17 15:20:00,67.7,59.9,29.90,ESE,107,1.0,1.0,76,0.00,,,0.00,Wunderground v.1.15,2013-06-17 19:20:00,
2013-06-17 15:25:00,67.0,59.5,29.90,SW,218,1.0,1.0,77,0.00,,,0.00,Wunderground v.1.15,2013-06-17 19:25:00,
2013-06-17 15:30:00,66.6,60.6,29.90,West,266,1.0,1.0,81,0.00,,,0.00,Wunderground v.1.15,2013-06-17 19:30:00,
2013-06-17 15:35:00,66.3,60.6,29.91,SW,214,1.0,1.0,82,0.00,,,0.00,Wunderground v.1.15,2013-06-17 19:35:00,
2013-06-17 15:40:00,66.2,60.9,29.91,WSW,240,0.0,0.0,83,0.00,,,0.00,Wunderground v.1.15,2013-06-17 19:40:00,
2013-06-17 15:50:00,66.1,60.8,29.92,NW,306,0.0,0.0,83,0.00,,,0.00,Wunderground v.1.15,2013-06-17 19:50:00,
2013-06-17 16:00:00,65.7,59.7,29.93,NNW,330,1.0,1.0,81,0.00,,,0.00,Wunderground v.1.15,2013-06-17 20:00:00,
2013-06-17 16:05:00,65.6,60.0,29.93,North,5,0.0,1.0,82,0.00,,,0.00,Wunderground v.1.15,2013-06-17 20:05:00,
2013-06-17 16:10:00,65.4,60.1,29.93,North,5,0.0,1.0,83,0.00,,,0.00,Wunderground v.1.15,2013-06-17 20:10:00,
2013-06-17 16:15:00,65.2,60.2,29.95,WSW,249,0.0,2.0,84,0.00,,,0.00,Wunderground v.1.15,2013-06-17 20:15:00,
2013-06-17 16:20:00,64.5,59.9,29.95,SSW,209,1.0,3.0,85,0.21,,,0.02,Wunderground v.1.15,2013-06-17 20:20:00,
2013-06-17 16:30:00,62.4,58.2,29.95,SSW,212,3.0,3.0,86,0.34,,,0.08,Wunderground v.1.15,2013-06-17 20:30:00,
2013-06-17 16:35:00,61.6,57.7,29.92,South,177,1.0,3.0,87,0.34,,,0.11,Wunderground v.1.15,2013-06-17 20:35:00,
2013-06-17 16:40:00,61.4,58.1,29.92,South,184,0.0,1.0,89,0.20,,,0.12,Wunderground v.1.15,2013-06-17 20:40:00,
2013-06-17 16:45:00,61.4,58.1,29.92,SSE,165,0.0,1.0,89,0.08,,,0.12,Wunderground v.1.15,2013-06-17 20:45:00,
2013-06-17 16:50:00,61.5,58.2,29.91,East,99,0.0,0.0,89,0.05,,,0.12,Wunderground v.1.15,2013-06-17 20:50:00,
2013-06-17 16:55:00,61.7,58.4,29.91,SE,126,0.0,2.0,89,0.00,,,0.12,Wunderground v.1.15,2013-06-17 20:55:00,
2013-06-17 17:00:00,62.1,58.8,29.91,SSE,153,0.0,1.0,89,0.00,,,0.12,Wunderground v.1.15,2013-06-17 21:00:00,
2013-06-17 17:05:00,62.5,59.2,29.90,East,90,1.0,1.0,89,0.00,,,0.12,Wunderground v.1.15,2013-06-17 21:05:00,
2013-06-17 17:10:00,63.1,59.8,29.90,SSE,153,1.0,1.0,89,0.00,,,0.12,Wunderground v.1.15,2013-06-17 21:10:00,
2013-06-17 17:20:00,63.9,59.3,29.90,WSW,238,1.0,5.0,85,0.00,,,0.12,Wunderground v.1.15,2013-06-17 21:20:00,
2013-06-17 17:25:00,63.9,59.0,29.90,SW,221,1.0,5.0,84,0.00,,,0.12,Wunderground v.1.15,2013-06-17 21:25:00,
2013-06-17 17:30:00,63.7,58.1,29.90,SW,224,1.0,1.0,82,0.00,,,0.12,Wunderground v.1.15,2013-06-17 21:30:00,
2013-06-17 17:35:00,63.6,58.0,29.90,SW,214,2.0,2.0,82,0.00,,,0.12,Wunderground v.1.15,2013-06-17 21:35:00,
2013-06-17 17:40:00,63.5,59.6,29.91,WNW,294,1.0,1.0,87,0.00,,,0.12,Wunderground v.1.15,2013-06-17 21:40:00,
2013-06-17 17:45:00,63.6,60.0,29.91,SW,227,1.0,1.0,88,0.00,,,0.12,Wunderground v.1.15,2013-06-17 21:45:00,
2013-06-17 17:50:00,63.8,60.2,29.91,ESE,119,0.0,0.0,88,0.00,,,0.12,Wunderground v.1.15,2013-06-17 21:50:00,
2013-06-17 17:55:00,64.1,60.2,29.91,SE,127,0.0,0.0,87,0.00,,,0.12,Wunderground v.1.15,2013-06-17 21:55:00,
2013-06-17 18:00:00,64.6,61.3,29.91,South,170,0.0,0.0,89,0.00,,,0.12,Wunderground v.1.15,2013-06-17 22:00:00,
2013-06-17 18:05:00,64.7,60.4,29.92,WSW,248,0.0,0.0,86,0.00,,,0.12,Wunderground v.1.15,2013-06-17 22:05:00,
2013-06-17 18:15:00,65.1,60.8,29.92,South,179,0.0,0.0,86,0.00,,,0.12,Wunderground v.1.15,2013-06-17 22:15:00,
2013-06-17 18:20:00,65.3,60.3,29.92,SW,224,0.0,0.0,84,0.00,,,0.12,Wunderground v.1.15,2013-06-17 22:20:00,
2013-06-17 18:25:00,65.0,59.4,29.92,SSW,202,1.0,2.0,82,0.00,,,0.12,Wunderground v.1.15,2013-06-17 22:25:00,
2013-06-17 18:30:00,64.5,59.2,29.92,South,188,1.0,1.0,83,0.00,,,0.12,Wunderground v.1.15,2013-06-17 22:30:00,
2013-06-17 18:40:00,64.0,59.1,29.92,SW,225,1.0,1.0,84,0.00,,,0.12,Wunderground v.1.15,2013-06-17 22:40:00,
2013-06-17 18:45:00,63.9,59.3,29.92,SSW,205,1.0,1.0,85,0.00,,,0.12,Wunderground v.1.15,2013-06-17 22:45:00,
2013-06-17 18:50:00,63.8,59.5,29.92,South,173,0.0,0.0,86,0.00,,,0.12,Wunderground v.1.15,2013-06-17 22:50:00,
2013-06-17 18:55:00,63.6,59.3,29.93,South,173,0.0,0.0,86,0.00,,,0.12,Wunderground v.1.15,2013-06-17 22:55:00,
2013-06-17 19:05:00,63.8,59.5,29.92,SSW,207,1.0,1.0,86,0.00,,,0.12,Wunderground v.1.15,2013-06-17 23:05:00,
2013-06-17 19:10:00,64.1,59.2,29.92,South,173,1.0,1.0,84,0.00,,,0.12,Wunderground v.1.15,2013-06-17 23:10:00,
2013-06-17 19:15:00,64.5,59.6,29.92,SSW,201,1.0,1.0,84,0.00,,,0.12,Wunderground v.1.15,2013-06-17 23:15:00,
2013-06-17 19:20:00,64.8,59.9,29.92,WSW,242,1.0,2.0,84,0.00,,,0.12,Wunderground v.1.15,2013-06-17 23:20:00,
2013-06-17 19:30:00,64.9,59.6,29.92,SSW,205,1.0,1.0,83,0.00,,,0.12,Wunderground v.1.15,2013-06-17 23:30:00,
2013-06-17 19:35:00,64.9,59.6,29.93,SSW,205,1.0,1.0,83,0.00,,,0.12,Wunderground v.1.15,2013-06-17 23:35:00,
2013-06-17 19:40:00,64.7,59.1,29.93,SSW,200,1.0,1.0,82,0.00,,,0.12,Wunderground v.1.15,2013-06-17 23:40:00,
2013-06-17 19:45:00,64.5,59.2,29.93,SSW,211,1.0,2.0,83,0.00,,,0.12,Wunderground v.1.15,2013-06-17 23:45:00,
2013-06-17 19:50:00,64.3,59.4,29.93,SW,221,1.0,1.0,84,0.00,,,0.12,Wunderground v.1.15,2013-06-17 23:50:00,
2013-06-17 19:55:00,64.1,59.2,29.93,SSW,204,1.0,1.0,84,0.00,,,0.12,Wunderground v.1.15,2013-06-17 23:55:00,
2013-06-17 20:00:00,63.9,59.0,29.93,SSW,196,1.0,2.0,84,0.00,,,0.12,Wunderground v.1.15,2013-06-18 00:00:00,
2013-06-17 20:05:00,63.8,59.2,29.94,SSW,201,1.0,2.0,85,0.00,,,0.12,Wunderground v.1.15,2013-06-18 00:05:00,
2013-06-17 20:10:00,63.6,59.0,29.93,SSW,201,1.0,1.0,85,0.00,,,0.12,Wunderground v.1.15,2013-06-18 00:10:00,
2013-06-17 20:15:00,63.5,58.9,29.94,SW,215,1.0,1.0,85,0.00,,,0.12,Wunderground v.1.15,2013-06-18 00:15:00,
2013-06-17 20:20:00,63.4,58.5,29.93,SSW,202,1.0,1.0,84,0.00,,,0.12,Wunderground v.1.15,2013-06-18 00:20:00,
2013-06-17 20:25:00,63.5,58.9,29.94,West,275,2.0,2.0,85,0.00,,,0.12,Wunderground v.1.15,2013-06-18 00:25:00,
2013-06-17 20:35:00,63.0,58.7,29.94,NNW,331,1.0,3.0,86,0.00,,,0.12,Wunderground v.1.15,2013-06-18 00:35:00,
2013-06-17 20:40:00,62.7,58.8,29.95,NNW,331,1.0,1.0,87,0.00,,,0.12,Wunderground v.1.15,2013-06-18 00:40:00,
2013-06-17 20:45:00,62.3,58.7,29.95,North,355,0.0,1.0,88,0.00,,,0.12,Wunderground v.1.15,2013-06-18 00:45:00,
2013-06-17 20:50:00,62.1,58.5,29.95,SE,127,0.0,0.0,88,0.00,,,0.12,Wunderground v.1.15,2013-06-18 00:50:00,
2013-06-17 20:55:00,62.0,58.4,29.95,South,186,0.0,0.0,88,0.00,,,0.12,Wunderground v.1.15,2013-06-18 00:55:00,
2013-06-17 21:00:00,62.0,58.4,29.96,SSE,164,0.0,1.0,88,0.00,,,0.12,Wunderground v.1.15,2013-06-18 01:00:00,
2013-06-17 21:10:00,61.8,58.2,29.97,SSW,202,0.0,2.0,88,0.00,,,0.12,Wunderground v.1.15,2013-06-18 01:10:00,
2013-06-17 21:15:00,61.9,58.3,29.97,SW,215,1.0,2.0,88,0.00,,,0.12,Wunderground v.1.15,2013-06-18 01:15:00,
2013-06-17 21:25:00,62.6,58.7,29.97,SSE,153,1.0,1.0,87,0.00,,,0.12,Wunderground v.1.15,2013-06-18 01:25:00,
2013-06-17 21:30:00,62.6,58.7,29.97,SSE,149,1.0,1.0,87,0.00,,,0.12,Wunderground v.1.15,2013-06-18 01:30:00,
2013-06-17 21:35:00,62.5,58.6,29.97,WSW,241,0.0,1.0,87,0.00,,,0.12,Wunderground v.1.15,2013-06-18 01:35:00,
2013-06-17 21:40:00,62.2,58.6,29.97,WSW,241,0.0,0.0,88,0.00,,,0.12,Wunderground v.1.15,2013-06-18 01:40:00,
2013-06-17 21:50:00,62.0,58.1,29.98,SW,231,1.0,1.0,87,0.00,,,0.12,Wunderground v.1.15,2013-06-18 01:50:00,
2013-06-17 21:55:00,62.3,58.4,29.98,WSW,242,1.0,1.0,87,0.00,,,0.12,Wunderground v.1.15,2013-06-18 01:55:00,
2013-06-17 22:00:00,62.5,58.3,29.98,WSW,249,0.0,0.0,86,0.00,,,0.12,Wunderground v.1.15,2013-06-18 02:00:00,
2013-06-17 22:10:00,62.3,58.4,29.97,South,185,0.0,0.0,87,0.00,,,0.12,Wunderground v.1.15,2013-06-18 02:10:00,
2013-06-17 22:15:00,61.9,58.0,29.97,South,185,0.0,0.0,87,0.00,,,0.12,Wunderground v.1.15,2013-06-18 02:15:00,
2013-06-17 22:20:00,61.5,57.9,29.98,South,185,0.0,0.0,88,0.00,,,0.12,Wunderground v.1.15,2013-06-18 02:20:00,
2013-06-17 22:25:00,61.2,57.9,29.98,South,185,0.0,1.0,89,0.00,,,0.12,Wunderground v.1.15,2013-06-18 02:25:00,
2013-06-17 22:35:00,61.0,57.7,29.98,South,185,0.0,0.0,89,0.00,,,0.12,Wunderground v.1.15,2013-06-18 02:35:00,
2013-06-17 22:45:00,60.6,57.7,29.98,South,185,0.0,3.0,90,0.00,,,0.12,Wunderground v.1.15,2013-06-18 02:45:00,
2013-06-17 22:50:00,60.6,57.7,29.98,South,185,1.0,2.0,90,0.00,,,0.12,Wunderground v.1.15,2013-06-18 02:50:00,
2013-06-17 22:55:00,60.8,57.8,29.99,South,185,2.0,2.0,90,0.00,,,0.12,Wunderground v.1.15,2013-06-18 02:55:00,
2013-06-17 23:00:00,60.9,57.9,29.99,SSW,200,1.0,1.0,90,0.00,,,0.12,Wunderground v.1.15,2013-06-18 03:00:00,
2013-06-17 23:05:00,60.9,57.9,29.99,SW,232,0.0,1.0,90,0.00,,,0.12,Wunderground v.1.15,2013-06-18 03:05:00,
2013-06-17 23:15:00,60.8,57.5,29.99,NW,306,0.0,0.0,89,0.00,,,0.12,Wunderground v.1.15,2013-06-18 03:15:00,
2013-06-17 23:20:00,60.8,57.5,29.98,NW,306,0.0,0.0,89,0.00,,,0.12,Wunderground v.1.15,2013-06-18 03:20:00,
2013-06-17 23:25:00,60.8,57.5,29.98,NW,306,0.0,0.0,89,0.00,,,0.12,Wunderground v.1.15,2013-06-18 03:25:00,
2013-06-17 23:30:00,60.6,57.7,29.98,NW,306,0.0,0.0,90,0.00,,,0.12,Wunderground v.1.15,2013-06-18 03:30:00,
2013-06-17 23:40:00,60.1,56.8,29.97,SW,231,0.0,0.0,89,0.00,,,0.12,Wunderground v.1.15,2013-06-18 03:40:00,
2013-06-17 23:45:00,59.8,56.6,29.97,South,184,1.0,1.0,89,0.00,,,0.12,Wunderground v.1.15,2013-06-18 03:45:00,
2013-06-17 23:50:00,59.6,56.4,29.98,SSE,156,1.0,4.0,89,0.00,,,0.12,Wunderground v.1.15,2013-06-18 03:50:00,
2013-06-17 23:55:00,59.8,56.2,29.98,South,184,1.0,4.0,88,0.00,,,0.12,Wunderground v.1.15,2013-06-18 03:55:00,